sensor_id;sensor_type;location;lat;lon;timestamp;temperature;humidity
25050;DHT22;13046;49.814;9.918;2023-07-20T00:01:04;17.60;99.90
25050;DHT22;13046;49.814;9.918;2023-07-20T00:03:29;17.60;99.90
25050;DHT22;13046;49.814;9.918;2023-07-20T00:05:55;17.60;99.90
25050;DHT22;13046;49.814;9.918;2023-07-20T00:08:21;17.60;99.90
25050;DHT22;13046;49.814;9.918;2023-07-20T00:10:46;17.50;99.90
25050;DHT22;13046;49.814;9.918;2023-07-20T00:13:12;17.40;99.90
25050;DHT22;13046;49.814;9.918;2023-07-20T00:15:38;17.40;99.90
25050;DHT22;13046;49.814;9.918;2023-07-20T00:18:05;17.40;99.90
25050;DHT22;13046;49.814;9.918;2023-07-20T00:20:30;17.40;99.90
25050;DHT22;13046;49.814;9.918;2023-07-20T00:22:57;17.40;99.90
25050;DHT22;13046;49.814;9.918;2023-07-20T00:25:24;17.50;99.90
25050;DHT22;13046;49.814;9.918;2023-07-20T00:27:49;17.50;99.90
25050;DHT22;13046;49.814;9.918;2023-07-20T00:30:15;17.50;99.90
25050;DHT22;13046;49.814;9.918;2023-07-20T00:32:44;17.50;99.90
25050;DHT22;13046;49.814;9.918;2023-07-20T00:35:10;17.50;99.90
25050;DHT22;13046;49.814;9.918;2023-07-20T00:37:38;17.50;99.90
25050;DHT22;13046;49.814;9.918;2023-07-20T00:40:05;17.50;99.90
25050;DHT22;13046;49.814;9.918;2023-07-20T00:42:33;17.50;99.90
25050;DHT22;13046;49.814;9.918;2023-07-20T00:44:59;17.50;99.90
25050;DHT22;13046;49.814;9.918;2023-07-20T00:47:24;17.50;99.90
25050;DHT22;13046;49.814;9.918;2023-07-20T00:49:52;17.50;99.90
25050;DHT22;13046;49.814;9.918;2023-07-20T00:52:19;17.50;99.90
25050;DHT22;13046;49.814;9.918;2023-07-20T00:54:45;17.50;99.90
25050;DHT22;13046;49.814;9.918;2023-07-20T00:57:14;17.50;99.90
25050;DHT22;13046;49.814;9.918;2023-07-20T00:59:39;17.50;99.90
25050;DHT22;13046;49.814;9.918;2023-07-20T01:02:05;17.40;99.90
25050;DHT22;13046;49.814;9.918;2023-07-20T01:04:31;17.40;99.90
25050;DHT22;13046;49.814;9.918;2023-07-20T01:07:03;17.40;99.90
25050;DHT22;13046;49.814;9.918;2023-07-20T01:09:40;17.30;99.90
25050;DHT22;13046;49.814;9.918;2023-07-20T01:12:13;17.30;99.90
25050;DHT22;13046;49.814;9.918;2023-07-20T01:14:42;17.30;99.90
25050;DHT22;13046;49.814;9.918;2023-07-20T01:17:08;17.30;99.90
25050;DHT22;13046;49.814;9.918;2023-07-20T01:19:33;17.30;99.90
25050;DHT22;13046;49.814;9.918;2023-07-20T01:22:14;17.30;99.90
25050;DHT22;13046;49.814;9.918;2023-07-20T01:30:55;17.20;99.90
25050;DHT22;13046;49.814;9.918;2023-07-20T01:33:24;17.20;99.90
25050;DHT22;13046;49.814;9.918;2023-07-20T01:35:56;17.20;99.90
25050;DHT22;13046;49.814;9.918;2023-07-20T01:38:24;17.20;99.90
25050;DHT22;13046;49.814;9.918;2023-07-20T01:40:50;17.20;99.90
25050;DHT22;13046;49.814;9.918;2023-07-20T01:43:17;17.20;99.90
25050;DHT22;13046;49.814;9.918;2023-07-20T01:45:43;17.20;99.90
25050;DHT22;13046;49.814;9.918;2023-07-20T01:48:09;17.20;99.90
25050;DHT22;13046;49.814;9.918;2023-07-20T01:50:35;17.20;99.90
25050;DHT22;13046;49.814;9.918;2023-07-20T01:53:01;17.20;99.90
25050;DHT22;13046;49.814;9.918;2023-07-20T01:55:26;17.10;99.90
25050;DHT22;13046;49.814;9.918;2023-07-20T01:57:55;17.10;99.90
25050;DHT22;13046;49.814;9.918;2023-07-20T02:00:20;17.10;99.90
25050;DHT22;13046;49.814;9.918;2023-07-20T02:02:51;17.10;99.90
25050;DHT22;13046;49.814;9.918;2023-07-20T02:05:17;17.00;99.90
25050;DHT22;13046;49.814;9.918;2023-07-20T02:07:43;17.00;99.90
25050;DHT22;13046;49.814;9.918;2023-07-20T02:10:09;16.90;99.90
25050;DHT22;13046;49.814;9.918;2023-07-20T02:12:35;16.90;99.90
25050;DHT22;13046;49.814;9.918;2023-07-20T02:15:03;16.80;99.90
25050;DHT22;13046;49.814;9.918;2023-07-20T02:17:28;16.80;99.90
25050;DHT22;13046;49.814;9.918;2023-07-20T02:19:55;16.80;99.90
25050;DHT22;13046;49.814;9.918;2023-07-20T02:22:21;16.80;99.90
25050;DHT22;13046;49.814;9.918;2023-07-20T02:24:47;16.80;99.90
25050;DHT22;13046;49.814;9.918;2023-07-20T02:27:13;16.70;99.90
25050;DHT22;13046;49.814;9.918;2023-07-20T02:29:41;16.60;99.90
25050;DHT22;13046;49.814;9.918;2023-07-20T02:32:08;16.60;99.90
25050;DHT22;13046;49.814;9.918;2023-07-20T02:34:34;16.50;99.90
25050;DHT22;13046;49.814;9.918;2023-07-20T02:37:00;16.30;99.90
25050;DHT22;13046;49.814;9.918;2023-07-20T02:39:29;16.30;99.90
25050;DHT22;13046;49.814;9.918;2023-07-20T02:41:56;16.20;99.90
25050;DHT22;13046;49.814;9.918;2023-07-20T02:44:21;16.20;99.90
25050;DHT22;13046;49.814;9.918;2023-07-20T02:46:47;16.10;99.90
25050;DHT22;13046;49.814;9.918;2023-07-20T02:49:16;16.10;99.90
25050;DHT22;13046;49.814;9.918;2023-07-20T02:51:42;16.10;99.90
25050;DHT22;13046;49.814;9.918;2023-07-20T02:54:07;16.10;99.90
25050;DHT22;13046;49.814;9.918;2023-07-20T02:56:33;16.00;99.90
25050;DHT22;13046;49.814;9.918;2023-07-20T02:59:01;15.90;99.90
25050;DHT22;13046;49.814;9.918;2023-07-20T03:01:27;16.00;99.90
25050;DHT22;13046;49.814;9.918;2023-07-20T03:03:57;15.90;99.90
25050;DHT22;13046;49.814;9.918;2023-07-20T03:06:23;15.90;99.90
25050;DHT22;13046;49.814;9.918;2023-07-20T03:08:49;15.70;99.90
25050;DHT22;13046;49.814;9.918;2023-07-20T03:11:19;15.60;99.90
25050;DHT22;13046;49.814;9.918;2023-07-20T03:13:46;15.60;99.90
25050;DHT22;13046;49.814;9.918;2023-07-20T03:16:13;15.50;99.90
25050;DHT22;13046;49.814;9.918;2023-07-20T03:18:44;15.60;99.90
25050;DHT22;13046;49.814;9.918;2023-07-20T03:21:11;15.50;99.90
25050;DHT22;13046;49.814;9.918;2023-07-20T03:23:37;15.60;99.90
25050;DHT22;13046;49.814;9.918;2023-07-20T03:26:03;15.60;99.90
25050;DHT22;13046;49.814;9.918;2023-07-20T03:28:30;15.60;99.90
25050;DHT22;13046;49.814;9.918;2023-07-20T03:30:57;15.50;99.90
25050;DHT22;13046;49.814;9.918;2023-07-20T03:33:28;15.50;99.90
25050;DHT22;13046;49.814;9.918;2023-07-20T03:35:54;15.50;99.90
25050;DHT22;13046;49.814;9.918;2023-07-20T03:38:21;15.50;99.90
25050;DHT22;13046;49.814;9.918;2023-07-20T03:40:59;15.50;99.90
25050;DHT22;13046;49.814;9.918;2023-07-20T03:43:25;15.40;99.90
25050;DHT22;13046;49.814;9.918;2023-07-20T03:45:52;15.40;99.90
25050;DHT22;13046;49.814;9.918;2023-07-20T03:48:20;15.40;99.90
25050;DHT22;13046;49.814;9.918;2023-07-20T03:50:48;15.30;99.90
25050;DHT22;13046;49.814;9.918;2023-07-20T03:53:14;15.30;99.90
25050;DHT22;13046;49.814;9.918;2023-07-20T03:55:41;15.30;99.90
25050;DHT22;13046;49.814;9.918;2023-07-20T03:58:07;15.30;99.90
25050;DHT22;13046;49.814;9.918;2023-07-20T04:00:34;15.30;99.90
25050;DHT22;13046;49.814;9.918;2023-07-20T04:03:00;15.30;99.90
25050;DHT22;13046;49.814;9.918;2023-07-20T04:05:26;15.30;99.90
25050;DHT22;13046;49.814;9.918;2023-07-20T04:07:52;15.30;99.90
25050;DHT22;13046;49.814;9.918;2023-07-20T04:10:18;15.30;99.90
25050;DHT22;13046;49.814;9.918;2023-07-20T04:12:47;15.30;99.90
25050;DHT22;13046;49.814;9.918;2023-07-20T04:15:16;15.30;99.90
25050;DHT22;13046;49.814;9.918;2023-07-20T04:17:42;15.30;99.90
25050;DHT22;13046;49.814;9.918;2023-07-20T04:20:08;15.30;99.90
25050;DHT22;13046;49.814;9.918;2023-07-20T04:22:34;15.30;99.90
25050;DHT22;13046;49.814;9.918;2023-07-20T04:25:01;15.30;99.90
25050;DHT22;13046;49.814;9.918;2023-07-20T04:27:26;15.30;99.90
25050;DHT22;13046;49.814;9.918;2023-07-20T04:29:52;15.30;99.90
25050;DHT22;13046;49.814;9.918;2023-07-20T04:32:18;15.30;99.90
25050;DHT22;13046;49.814;9.918;2023-07-20T04:34:44;15.30;99.90
25050;DHT22;13046;49.814;9.918;2023-07-20T04:37:09;15.30;99.90
25050;DHT22;13046;49.814;9.918;2023-07-20T04:39:35;15.30;99.90
25050;DHT22;13046;49.814;9.918;2023-07-20T04:42:06;15.40;99.90
25050;DHT22;13046;49.814;9.918;2023-07-20T04:44:31;15.30;99.90
25050;DHT22;13046;49.814;9.918;2023-07-20T04:46:57;15.10;99.90
25050;DHT22;13046;49.814;9.918;2023-07-20T04:49:23;15.20;99.90
25050;DHT22;13046;49.814;9.918;2023-07-20T04:51:49;15.30;99.90
25050;DHT22;13046;49.814;9.918;2023-07-20T04:54:15;15.40;99.90
25050;DHT22;13046;49.814;9.918;2023-07-20T04:56:42;15.40;99.90
25050;DHT22;13046;49.814;9.918;2023-07-20T04:59:10;15.60;99.90
25050;DHT22;13046;49.814;9.918;2023-07-20T05:01:35;15.70;99.90
25050;DHT22;13046;49.814;9.918;2023-07-20T05:04:01;15.80;99.90
25050;DHT22;13046;49.814;9.918;2023-07-20T05:06:27;15.80;99.90
25050;DHT22;13046;49.814;9.918;2023-07-20T05:08:53;16.00;99.90
25050;DHT22;13046;49.814;9.918;2023-07-20T05:11:19;16.00;99.90
25050;DHT22;13046;49.814;9.918;2023-07-20T05:13:45;16.00;99.90
25050;DHT22;13046;49.814;9.918;2023-07-20T05:16:11;16.10;99.90
25050;DHT22;13046;49.814;9.918;2023-07-20T05:18:37;16.20;99.90
25050;DHT22;13046;49.814;9.918;2023-07-20T05:21:03;16.30;99.90
25050;DHT22;13046;49.814;9.918;2023-07-20T05:23:28;16.30;99.90
25050;DHT22;13046;49.814;9.918;2023-07-20T05:25:58;16.40;99.90
25050;DHT22;13046;49.814;9.918;2023-07-20T05:28:24;16.40;99.90
25050;DHT22;13046;49.814;9.918;2023-07-20T05:30:51;16.60;99.90
25050;DHT22;13046;49.814;9.918;2023-07-20T05:33:20;16.60;99.90
25050;DHT22;13046;49.814;9.918;2023-07-20T05:35:47;16.70;99.90
25050;DHT22;13046;49.814;9.918;2023-07-20T05:38:13;16.80;99.90
25050;DHT22;13046;49.814;9.918;2023-07-20T05:40:40;17.00;99.90
25050;DHT22;13046;49.814;9.918;2023-07-20T05:43:06;17.10;99.90
25050;DHT22;13046;49.814;9.918;2023-07-20T05:45:32;17.20;99.90
25050;DHT22;13046;49.814;9.918;2023-07-20T05:47:57;17.20;99.90
25050;DHT22;13046;49.814;9.918;2023-07-20T05:50:23;17.30;99.90
25050;DHT22;13046;49.814;9.918;2023-07-20T05:52:48;17.40;99.90
25050;DHT22;13046;49.814;9.918;2023-07-20T05:55:14;17.60;99.90
25050;DHT22;13046;49.814;9.918;2023-07-20T05:57:40;17.50;99.90
25050;DHT22;13046;49.814;9.918;2023-07-20T06:00:08;17.50;99.90
25050;DHT22;13046;49.814;9.918;2023-07-20T06:02:43;17.50;99.90
25050;DHT22;13046;49.814;9.918;2023-07-20T06:05:09;17.60;99.90
25050;DHT22;13046;49.814;9.918;2023-07-20T06:07:36;17.80;99.90
25050;DHT22;13046;49.814;9.918;2023-07-20T06:10:02;17.80;99.90
25050;DHT22;13046;49.814;9.918;2023-07-20T06:12:28;17.70;99.90
25050;DHT22;13046;49.814;9.918;2023-07-20T06:14:54;17.70;99.90
25050;DHT22;13046;49.814;9.918;2023-07-20T06:17:19;17.70;99.90
25050;DHT22;13046;49.814;9.918;2023-07-20T06:19:45;17.90;99.90
25050;DHT22;13046;49.814;9.918;2023-07-20T06:22:11;18.00;99.90
25050;DHT22;13046;49.814;9.918;2023-07-20T06:24:36;18.00;99.90
25050;DHT22;13046;49.814;9.918;2023-07-20T06:27:02;18.10;99.90
25050;DHT22;13046;49.814;9.918;2023-07-20T06:44:05;18.20;99.90
